EZY86KZ EGAA-EGKK
Flight info
| Callsign | EZY86KZ |
|---|---|
| Flight time | 1h 9m |
| Altitude | 33000 |
| Route | LISBO DCT RINGA DCT BABGU DCT ETIGA DCT INKOB Q39 NOMSU UQ4 WAL L151 DISIT |
| Aircraft | A20N/M-SDE2E3FGHIJ1RWXYZ/LB1 |
Departure
| Time | 2026-05-05 22:41 |
|---|---|
| Airport | Belfast International Airport (EGAA) |
Arrival
| Time | 2026-05-05 23:50 |
|---|---|
| Airport | London Gatwick Airport (EGKK) |
| Time | Latitude | Longitude | Altitude | Speed | Heading |
|---|---|---|---|---|---|
| 2026-05-05 22:23 | 54.65979 | -6.21962 | 237 ft | 0 kts | 64° |
| 2026-05-05 22:32 | 54.65976 | -6.21973 | 236 ft | 3 kts | 64° |
| 2026-05-05 22:32 | 54.65968 | -6.22004 | 236 ft | 3 kts | 64° |
| 2026-05-05 22:32 | 54.65959 | -6.22033 | 236 ft | 2 kts | 65° |
| 2026-05-05 22:33 | 54.65955 | -6.22058 | 235 ft | 3 kts | 78° |
| 2026-05-05 22:33 | 54.65952 | -6.22091 | 235 ft | 3 kts | 117° |
| 2026-05-05 22:33 | 54.65953 | -6.22093 | 236 ft | 0 kts | 124° |
| 2026-05-05 22:37 | 54.65949 | -6.22086 | 235 ft | 2 kts | 129° |
| 2026-05-05 22:37 | 54.65926 | -6.22060 | 234 ft | 6 kts | 153° |
| 2026-05-05 22:37 | 54.65877 | -6.22024 | 237 ft | 10 kts | 157° |
| 2026-05-05 22:38 | 54.65805 | -6.22052 | 236 ft | 14 kts | 229° |
| 2026-05-05 22:38 | 54.65771 | -6.22257 | 231 ft | 21 kts | 264° |
| 2026-05-05 22:38 | 54.65751 | -6.22549 | 225 ft | 28 kts | 263° |
| 2026-05-05 22:38 | 54.65716 | -6.22887 | 221 ft | 27 kts | 239° |
| 2026-05-05 22:39 | 54.65610 | -6.23139 | 223 ft | 27 kts | 234° |
| 2026-05-05 22:39 | 54.65481 | -6.23359 | 220 ft | 26 kts | 202° |
| 2026-05-05 22:39 | 54.65328 | -6.23369 | 221 ft | 20 kts | 156° |
| 2026-05-05 22:39 | 54.65301 | -6.23245 | 221 ft | 10 kts | 66° |
| 2026-05-05 22:40 | 54.65328 | -6.23142 | 228 ft | 9 kts | 66° |
| 2026-05-05 22:40 | 54.65356 | -6.23032 | 225 ft | 16 kts | 66° |
| 2026-05-05 22:40 | 54.65498 | -6.22510 | 230 ft | 82 kts | 64° |
| 2026-05-05 22:40 | 54.65835 | -6.21265 | 244 ft | 145 kts | 65° |
| 2026-05-05 22:41 | 54.66293 | -6.19519 | 586 ft | 163 kts | 64° |
| 2026-05-05 22:41 | 54.66741 | -6.17764 | 1343 ft | 162 kts | 66° |
| 2026-05-05 22:41 | 54.66697 | -6.15780 | 1950 ft | 180 kts | 114° |
| 2026-05-05 22:41 | 54.65695 | -6.14462 | 2629 ft | 193 kts | 163° |
| 2026-05-05 22:42 | 54.64316 | -6.14274 | 3202 ft | 205 kts | 183° |
| 2026-05-05 22:42 | 54.62896 | -6.14635 | 3879 ft | 208 kts | 186° |
| 2026-05-05 22:42 | 54.61456 | -6.14578 | 4549 ft | 208 kts | 171° |
| 2026-05-05 22:42 | 54.60028 | -6.14101 | 5159 ft | 216 kts | 164° |
| 2026-05-05 22:43 | 54.58480 | -6.13277 | 5373 ft | 249 kts | 159° |
| 2026-05-05 22:43 | 54.56804 | -6.12173 | 5905 ft | 264 kts | 157° |
| 2026-05-05 22:43 | 54.55091 | -6.10954 | 6803 ft | 267 kts | 157° |
| 2026-05-05 22:43 | 54.53383 | -6.09590 | 7586 ft | 276 kts | 146° |
| 2026-05-05 22:44 | 54.52037 | -6.07184 | 8342 ft | 285 kts | 125° |
| 2026-05-05 22:44 | 54.51025 | -6.04219 | 9230 ft | 289 kts | 116° |
| 2026-05-05 22:44 | 54.50471 | -6.02115 | 9807 ft | 294 kts | 112° |
| 2026-05-05 22:44 | 54.49716 | -5.98785 | 10477 ft | 307 kts | 110° |
| 2026-05-05 22:45 | 54.48952 | -5.95197 | 10837 ft | 330 kts | 109° |
| 2026-05-05 22:45 | 54.48136 | -5.91417 | 11478 ft | 342 kts | 110° |
| 2026-05-05 22:45 | 54.47271 | -5.87566 | 12314 ft | 348 kts | 111° |
| 2026-05-05 22:45 | 54.46361 | -5.83670 | 13169 ft | 354 kts | 112° |
| 2026-05-05 22:46 | 54.45416 | -5.79730 | 14022 ft | 360 kts | 112° |
| 2026-05-05 22:46 | 54.44442 | -5.75735 | 14795 ft | 364 kts | 113° |
| 2026-05-05 22:46 | 54.43451 | -5.71705 | 15591 ft | 368 kts | 113° |
| 2026-05-05 22:46 | 54.42449 | -5.67640 | 16365 ft | 372 kts | 113° |
| 2026-05-05 22:47 | 54.41435 | -5.63534 | 17121 ft | 376 kts | 113° |
| 2026-05-05 22:47 | 54.40385 | -5.59408 | 17857 ft | 379 kts | 117° |
| 2026-05-05 22:47 | 54.39074 | -5.55457 | 18583 ft | 383 kts | 122° |
| 2026-05-05 22:47 | 54.37635 | -5.51578 | 19225 ft | 387 kts | 124° |
| 2026-05-05 22:48 | 54.36126 | -5.47741 | 19857 ft | 390 kts | 126° |
| 2026-05-05 22:48 | 54.34567 | -5.43901 | 20507 ft | 394 kts | 126° |
| 2026-05-05 22:48 | 54.32983 | -5.40051 | 21156 ft | 398 kts | 126° |
| 2026-05-05 22:48 | 54.31378 | -5.36160 | 21768 ft | 401 kts | 126° |
| 2026-05-05 22:49 | 54.29761 | -5.32237 | 22389 ft | 405 kts | 126° |
| 2026-05-05 22:49 | 54.28135 | -5.28290 | 23009 ft | 408 kts | 127° |
| 2026-05-05 22:49 | 54.26426 | -5.24403 | 23592 ft | 411 kts | 129° |
| 2026-05-05 22:49 | 54.24629 | -5.20576 | 24070 ft | 414 kts | 131° |
| 2026-05-05 22:50 | 54.22786 | -5.16775 | 24535 ft | 417 kts | 131° |
| 2026-05-05 22:50 | 54.20917 | -5.12962 | 24991 ft | 420 kts | 131° |
| 2026-05-05 22:50 | 54.19035 | -5.09126 | 25458 ft | 423 kts | 131° |
| 2026-05-05 22:50 | 54.17143 | -5.05256 | 25890 ft | 426 kts | 131° |
| 2026-05-05 22:51 | 54.15246 | -5.01359 | 26326 ft | 428 kts | 131° |
| 2026-05-05 22:51 | 54.13338 | -4.97430 | 26728 ft | 431 kts | 131° |
| 2026-05-05 22:51 | 54.11447 | -4.93532 | 27136 ft | 434 kts | 131° |
| 2026-05-05 22:51 | 54.09518 | -4.89557 | 27549 ft | 437 kts | 131° |
| 2026-05-05 22:52 | 54.07575 | -4.85559 | 27954 ft | 439 kts | 131° |
| 2026-05-05 22:52 | 54.05617 | -4.81537 | 28352 ft | 442 kts | 131° |
| 2026-05-05 22:52 | 54.03671 | -4.77468 | 28752 ft | 445 kts | 130° |
| 2026-05-05 22:52 | 54.01768 | -4.73297 | 29120 ft | 448 kts | 129° |
| 2026-05-05 22:53 | 53.99889 | -4.69074 | 29580 ft | 448 kts | 129° |
| 2026-05-05 22:53 | 53.98014 | -4.64824 | 29970 ft | 451 kts | 129° |
| 2026-05-05 22:53 | 53.96129 | -4.60551 | 30278 ft | 453 kts | 129° |
| 2026-05-05 22:53 | 53.94226 | -4.56260 | 30568 ft | 456 kts | 129° |
| 2026-05-05 22:54 | 53.92310 | -4.51961 | 30876 ft | 458 kts | 129° |
| 2026-05-05 22:54 | 53.90380 | -4.47653 | 31182 ft | 459 kts | 129° |
| 2026-05-05 22:54 | 53.88450 | -4.43359 | 31583 ft | 457 kts | 129° |
| 2026-05-05 22:54 | 53.86538 | -4.39042 | 32014 ft | 456 kts | 128° |
| 2026-05-05 22:55 | 53.84697 | -4.34672 | 32408 ft | 456 kts | 127° |
| 2026-05-05 22:55 | 53.82895 | -4.30265 | 32785 ft | 455 kts | 126° |
| 2026-05-05 22:55 | 53.81106 | -4.25841 | 33029 ft | 457 kts | 126° |
| 2026-05-05 22:56 | 53.77515 | -4.16982 | 33059 ft | 456 kts | 126° |
| 2026-05-05 22:56 | 53.73913 | -4.08187 | 33056 ft | 455 kts | 127° |
| 2026-05-05 22:57 | 53.70320 | -3.99486 | 33056 ft | 455 kts | 127° |
| 2026-05-05 22:57 | 53.66671 | -3.90693 | 33049 ft | 454 kts | 127° |
| 2026-05-05 22:58 | 53.63040 | -3.81980 | 33056 ft | 454 kts | 127° |
| 2026-05-05 22:58 | 53.59430 | -3.73346 | 33056 ft | 454 kts | 127° |
| 2026-05-05 22:59 | 53.55789 | -3.64664 | 33058 ft | 454 kts | 127° |
| 2026-05-05 22:59 | 53.52142 | -3.55999 | 33059 ft | 454 kts | 127° |
| 2026-05-05 23:00 | 53.46847 | -3.42805 | 33058 ft | 456 kts | 118° |
| 2026-05-05 23:00 | 53.44177 | -3.33146 | 33059 ft | 457 kts | 115° |
| 2026-05-05 23:01 | 53.41680 | -3.23355 | 33064 ft | 457 kts | 114° |
| 2026-05-05 23:01 | 53.38522 | -3.14208 | 33068 ft | 453 kts | 131° |
| 2026-05-05 23:02 | 53.36324 | -3.10464 | 33070 ft | 449 kts | 142° |
| 2026-05-05 23:02 | 53.33867 | -3.07254 | 33067 ft | 448 kts | 146° |
| 2026-05-05 23:02 | 53.28756 | -3.01307 | 33074 ft | 447 kts | 148° |
| 2026-05-05 23:03 | 53.23578 | -2.95554 | 33056 ft | 447 kts | 148° |
| 2026-05-05 23:03 | 53.18415 | -2.89788 | 33050 ft | 447 kts | 148° |
| 2026-05-05 23:04 | 53.13264 | -2.83991 | 33050 ft | 447 kts | 148° |
| 2026-05-05 23:04 | 53.08121 | -2.78196 | 33046 ft | 447 kts | 148° |
| 2026-05-05 23:05 | 53.02973 | -2.72409 | 33046 ft | 447 kts | 148° |
| 2026-05-05 23:05 | 52.97821 | -2.66638 | 33036 ft | 447 kts | 148° |
| 2026-05-05 23:06 | 52.92676 | -2.60894 | 33049 ft | 446 kts | 148° |
| 2026-05-05 23:06 | 52.87525 | -2.55160 | 33049 ft | 446 kts | 148° |
| 2026-05-05 23:07 | 52.82409 | -2.49480 | 33046 ft | 446 kts | 148° |
| 2026-05-05 23:07 | 52.77224 | -2.43741 | 33048 ft | 445 kts | 148° |
| 2026-05-05 23:08 | 52.72075 | -2.38060 | 33038 ft | 445 kts | 147° |
| 2026-05-05 23:08 | 52.66921 | -2.32389 | 32811 ft | 446 kts | 147° |
| 2026-05-05 23:09 | 52.64326 | -2.29540 | 32114 ft | 448 kts | 147° |
| 2026-05-05 23:09 | 52.61776 | -2.26744 | 31601 ft | 445 kts | 147° |
| 2026-05-05 23:09 | 52.59174 | -2.23894 | 31108 ft | 442 kts | 147° |
| 2026-05-05 23:09 | 52.56625 | -2.21106 | 30602 ft | 439 kts | 147° |
| 2026-05-05 23:10 | 52.54130 | -2.18381 | 30097 ft | 436 kts | 148° |
| 2026-05-05 23:10 | 52.51614 | -2.15637 | 29570 ft | 432 kts | 148° |
| 2026-05-05 23:10 | 52.49117 | -2.12920 | 29102 ft | 427 kts | 147° |
| 2026-05-05 23:10 | 52.46641 | -2.10228 | 28481 ft | 426 kts | 147° |
| 2026-05-05 23:11 | 52.44180 | -2.07555 | 27916 ft | 424 kts | 148° |
| 2026-05-05 23:11 | 52.41749 | -2.04919 | 27557 ft | 417 kts | 148° |
| 2026-05-05 23:11 | 52.39336 | -2.02304 | 26941 ft | 412 kts | 148° |
| 2026-05-05 23:11 | 52.36950 | -1.99722 | 26177 ft | 409 kts | 148° |
| 2026-05-05 23:12 | 52.34595 | -1.97177 | 25610 ft | 401 kts | 148° |
| 2026-05-05 23:12 | 52.32292 | -1.94691 | 25096 ft | 393 kts | 149° |
| 2026-05-05 23:12 | 52.30034 | -1.92257 | 24596 ft | 385 kts | 149° |
| 2026-05-05 23:12 | 52.27819 | -1.89874 | 24094 ft | 378 kts | 149° |
| 2026-05-05 23:13 | 52.25645 | -1.87540 | 23583 ft | 371 kts | 149° |
| 2026-05-05 23:13 | 52.23514 | -1.85255 | 23041 ft | 364 kts | 149° |
| 2026-05-05 23:13 | 52.21419 | -1.83011 | 22563 ft | 356 kts | 149° |
| 2026-05-05 23:13 | 52.19366 | -1.80814 | 22103 ft | 349 kts | 149° |
| 2026-05-05 23:14 | 52.17343 | -1.78651 | 21621 ft | 347 kts | 149° |
| 2026-05-05 23:14 | 52.15322 | -1.76494 | 21153 ft | 348 kts | 149° |
| 2026-05-05 23:14 | 52.13297 | -1.74334 | 20681 ft | 348 kts | 149° |
| 2026-05-05 23:14 | 52.11267 | -1.72171 | 20230 ft | 349 kts | 149° |
| 2026-05-05 23:15 | 52.09243 | -1.70015 | 19915 ft | 348 kts | 149° |
| 2026-05-05 23:15 | 52.07220 | -1.67864 | 19539 ft | 346 kts | 148° |
| 2026-05-05 23:15 | 52.05210 | -1.65729 | 19233 ft | 345 kts | 148° |
| 2026-05-05 23:15 | 52.03207 | -1.63602 | 18935 ft | 343 kts | 148° |
| 2026-05-05 23:16 | 52.01212 | -1.61486 | 18621 ft | 342 kts | 148° |
| 2026-05-05 23:16 | 51.99223 | -1.59380 | 18325 ft | 340 kts | 148° |
| 2026-05-05 23:16 | 51.97245 | -1.57287 | 17990 ft | 339 kts | 148° |
| 2026-05-05 23:16 | 51.95277 | -1.55208 | 17694 ft | 337 kts | 148° |
| 2026-05-05 23:17 | 51.93314 | -1.53135 | 17400 ft | 336 kts | 148° |
| 2026-05-05 23:17 | 51.91357 | -1.51071 | 17115 ft | 335 kts | 148° |
| 2026-05-05 23:17 | 51.89402 | -1.49012 | 16815 ft | 335 kts | 148° |
| 2026-05-05 23:17 | 51.87456 | -1.46963 | 16506 ft | 333 kts | 148° |
| 2026-05-05 23:18 | 51.85513 | -1.44920 | 16221 ft | 332 kts | 148° |
| 2026-05-05 23:18 | 51.83585 | -1.42895 | 15938 ft | 330 kts | 148° |
| 2026-05-05 23:18 | 51.81685 | -1.40902 | 15660 ft | 330 kts | 149° |
| 2026-05-05 23:18 | 51.79763 | -1.38888 | 15360 ft | 330 kts | 148° |
| 2026-05-05 23:19 | 51.77836 | -1.36871 | 15084 ft | 330 kts | 148° |
| 2026-05-05 23:19 | 51.75912 | -1.34859 | 14914 ft | 330 kts | 148° |
| 2026-05-05 23:19 | 51.73992 | -1.32853 | 14767 ft | 328 kts | 148° |
| 2026-05-05 23:19 | 51.72077 | -1.30854 | 14636 ft | 327 kts | 148° |
| 2026-05-05 23:20 | 51.70171 | -1.28867 | 14507 ft | 326 kts | 148° |
| 2026-05-05 23:20 | 51.68269 | -1.26886 | 14371 ft | 326 kts | 148° |
| 2026-05-05 23:20 | 51.66367 | -1.24907 | 14236 ft | 325 kts | 148° |
| 2026-05-05 23:20 | 51.64468 | -1.22933 | 14106 ft | 325 kts | 148° |
| 2026-05-05 23:21 | 51.62570 | -1.20962 | 13974 ft | 324 kts | 148° |
| 2026-05-05 23:21 | 51.60676 | -1.18997 | 13840 ft | 324 kts | 148° |
| 2026-05-05 23:21 | 51.58783 | -1.17035 | 13699 ft | 324 kts | 148° |
| 2026-05-05 23:21 | 51.56894 | -1.15080 | 13578 ft | 323 kts | 148° |
| 2026-05-05 23:22 | 51.55007 | -1.13128 | 13431 ft | 322 kts | 148° |
| 2026-05-05 23:22 | 51.53123 | -1.11182 | 13306 ft | 321 kts | 148° |
| 2026-05-05 23:22 | 51.51243 | -1.09242 | 13170 ft | 321 kts | 148° |
| 2026-05-05 23:22 | 51.49367 | -1.07306 | 13040 ft | 321 kts | 148° |
| 2026-05-05 23:23 | 51.47491 | -1.05374 | 12910 ft | 320 kts | 148° |
| 2026-05-05 23:23 | 51.45617 | -1.03446 | 12776 ft | 320 kts | 148° |
| 2026-05-05 23:23 | 51.43749 | -1.01525 | 12647 ft | 319 kts | 148° |
| 2026-05-05 23:23 | 51.41881 | -0.99606 | 12514 ft | 319 kts | 148° |
| 2026-05-05 23:24 | 51.40009 | -0.97685 | 12382 ft | 319 kts | 148° |
| 2026-05-05 23:24 | 51.38144 | -0.95773 | 12239 ft | 318 kts | 147° |
| 2026-05-05 23:24 | 51.36286 | -0.93870 | 12122 ft | 317 kts | 147° |
| 2026-05-05 23:24 | 51.34427 | -0.91969 | 11981 ft | 317 kts | 147° |
| 2026-05-05 23:25 | 51.32573 | -0.90074 | 11874 ft | 316 kts | 147° |
| 2026-05-05 23:25 | 51.30722 | -0.88184 | 11740 ft | 316 kts | 147° |
| 2026-05-05 23:25 | 51.28873 | -0.86298 | 11612 ft | 315 kts | 147° |
| 2026-05-05 23:25 | 51.27027 | -0.84417 | 11491 ft | 315 kts | 147° |
| 2026-05-05 23:26 | 51.25184 | -0.82540 | 11361 ft | 314 kts | 147° |
| 2026-05-05 23:26 | 51.23342 | -0.80667 | 11230 ft | 314 kts | 147° |
| 2026-05-05 23:26 | 51.21502 | -0.78797 | 11103 ft | 313 kts | 147° |
| 2026-05-05 23:26 | 51.19667 | -0.76934 | 10976 ft | 313 kts | 147° |
| 2026-05-05 23:27 | 51.17832 | -0.75073 | 10846 ft | 312 kts | 147° |
| 2026-05-05 23:27 | 51.16000 | -0.73217 | 10722 ft | 312 kts | 147° |
| 2026-05-05 23:27 | 51.14171 | -0.71365 | 10587 ft | 312 kts | 147° |
| 2026-05-05 23:27 | 51.12341 | -0.69515 | 10462 ft | 311 kts | 147° |
| 2026-05-05 23:28 | 51.10516 | -0.67671 | 10337 ft | 311 kts | 147° |
| 2026-05-05 23:28 | 51.08691 | -0.65829 | 10201 ft | 310 kts | 147° |
| 2026-05-05 23:28 | 51.06875 | -0.63981 | 10080 ft | 310 kts | 144° |
| 2026-05-05 23:28 | 51.05304 | -0.61708 | 9949 ft | 301 kts | 125° |
| 2026-05-05 23:29 | 51.04232 | -0.58908 | 9839 ft | 295 kts | 116° |
| 2026-05-05 23:29 | 51.03308 | -0.55987 | 9691 ft | 296 kts | 114° |
| 2026-05-05 23:29 | 51.02405 | -0.53052 | 9571 ft | 296 kts | 114° |
| 2026-05-05 23:29 | 51.01501 | -0.50127 | 9454 ft | 295 kts | 114° |
| 2026-05-05 23:30 | 51.00594 | -0.47210 | 9332 ft | 294 kts | 114° |
| 2026-05-05 23:30 | 50.99992 | -0.45284 | 9263 ft | 294 kts | 114° |
| 2026-05-05 23:30 | 50.98777 | -0.41410 | 9094 ft | 293 kts | 115° |
| 2026-05-05 23:30 | 50.98175 | -0.39496 | 9016 ft | 292 kts | 115° |
| 2026-05-05 23:31 | 50.96962 | -0.35648 | 8855 ft | 291 kts | 115° |
| 2026-05-05 23:31 | 50.96068 | -0.32816 | 8736 ft | 290 kts | 115° |
| 2026-05-05 23:31 | 50.95165 | -0.29961 | 8622 ft | 289 kts | 115° |
| 2026-05-05 23:31 | 50.94263 | -0.27112 | 8500 ft | 289 kts | 115° |
| 2026-05-05 23:32 | 50.93363 | -0.24272 | 8376 ft | 288 kts | 115° |
| 2026-05-05 23:32 | 50.92465 | -0.21440 | 8268 ft | 287 kts | 115° |
| 2026-05-05 23:32 | 50.91567 | -0.18614 | 8157 ft | 287 kts | 115° |
| 2026-05-05 23:32 | 50.90674 | -0.15806 | 8021 ft | 282 kts | 115° |
| 2026-05-05 23:33 | 50.90081 | -0.13963 | 7950 ft | 273 kts | 115° |
| 2026-05-05 23:33 | 50.89220 | -0.11359 | 7851 ft | 261 kts | 116° |
| 2026-05-05 23:33 | 50.88388 | -0.08866 | 7756 ft | 252 kts | 116° |
| 2026-05-05 23:33 | 50.87571 | -0.06428 | 7654 ft | 250 kts | 116° |
| 2026-05-05 23:34 | 50.86762 | -0.04038 | 7553 ft | 249 kts | 116° |
| 2026-05-05 23:34 | 50.85935 | -0.01596 | 7481 ft | 246 kts | 116° |
| 2026-05-05 23:34 | 50.85135 | 0.00755 | 7414 ft | 247 kts | 116° |
| 2026-05-05 23:34 | 50.84312 | 0.03164 | 7306 ft | 250 kts | 116° |
| 2026-05-05 23:35 | 50.83485 | 0.05582 | 7212 ft | 250 kts | 116° |
| 2026-05-05 23:35 | 50.82846 | 0.08096 | 7108 ft | 245 kts | 96° |
| 2026-05-05 23:35 | 50.83031 | 0.10702 | 7006 ft | 238 kts | 64° |
| 2026-05-05 23:35 | 50.84031 | 0.12704 | 6959 ft | 233 kts | 33° |
| 2026-05-05 23:36 | 50.85531 | 0.13528 | 6961 ft | 230 kts | 2° |
| 2026-05-05 23:36 | 50.87068 | 0.12941 | 6962 ft | 231 kts | 331° |
| 2026-05-05 23:36 | 50.88241 | 0.11194 | 6975 ft | 235 kts | 310° |
| 2026-05-05 23:36 | 50.89159 | 0.09044 | 6965 ft | 237 kts | 302° |
| 2026-05-05 23:37 | 50.89971 | 0.06769 | 6966 ft | 237 kts | 301° |
| 2026-05-05 23:37 | 50.90768 | 0.04479 | 6963 ft | 238 kts | 301° |
| 2026-05-05 23:37 | 50.91566 | 0.02181 | 6964 ft | 238 kts | 301° |
| 2026-05-05 23:37 | 50.92364 | -0.00124 | 6974 ft | 239 kts | 300° |
| 2026-05-05 23:38 | 50.93133 | -0.02460 | 6962 ft | 239 kts | 299° |
| 2026-05-05 23:38 | 50.93880 | -0.04790 | 6965 ft | 231 kts | 299° |
| 2026-05-05 23:38 | 50.94571 | -0.06955 | 6971 ft | 211 kts | 299° |
| 2026-05-05 23:38 | 50.95223 | -0.08988 | 6968 ft | 206 kts | 299° |
| 2026-05-05 23:39 | 50.95876 | -0.11015 | 6964 ft | 206 kts | 299° |
| 2026-05-05 23:39 | 50.96529 | -0.13039 | 6966 ft | 206 kts | 299° |
| 2026-05-05 23:39 | 50.97182 | -0.15064 | 6967 ft | 206 kts | 299° |
| 2026-05-05 23:39 | 50.97835 | -0.17091 | 6964 ft | 206 kts | 299° |
| 2026-05-05 23:40 | 50.98520 | -0.19070 | 6964 ft | 201 kts | 305° |
| 2026-05-05 23:40 | 50.99307 | -0.20848 | 6718 ft | 196 kts | 308° |
| 2026-05-05 23:40 | 51.00117 | -0.22588 | 6359 ft | 195 kts | 305° |
| 2026-05-05 23:40 | 51.00636 | -0.24555 | 6042 ft | 195 kts | 281° |
| 2026-05-05 23:41 | 51.00687 | -0.26712 | 5728 ft | 197 kts | 270° |
| 2026-05-05 23:41 | 51.00617 | -0.28883 | 5426 ft | 197 kts | 269° |
| 2026-05-05 23:41 | 51.00532 | -0.31053 | 5119 ft | 197 kts | 269° |
| 2026-05-05 23:41 | 51.00449 | -0.33221 | 4815 ft | 197 kts | 269° |
| 2026-05-05 23:42 | 51.00365 | -0.35389 | 4492 ft | 196 kts | 269° |
| 2026-05-05 23:42 | 51.00280 | -0.37603 | 4194 ft | 208 kts | 269° |
| 2026-05-05 23:42 | 51.00194 | -0.39933 | 3877 ft | 211 kts | 269° |
| 2026-05-05 23:42 | 51.00125 | -0.42237 | 3567 ft | 206 kts | 274° |
| 2026-05-05 23:43 | 51.00406 | -0.44409 | 3263 ft | 198 kts | 297° |
| 2026-05-05 23:43 | 51.01206 | -0.46063 | 3025 ft | 184 kts | 329° |
| 2026-05-05 23:43 | 51.02359 | -0.46778 | 3005 ft | 178 kts | 355° |
| 2026-05-05 23:43 | 51.03575 | -0.46783 | 2987 ft | 168 kts | 7° |
| 2026-05-05 23:44 | 51.04617 | -0.46610 | 3023 ft | 139 kts | 9° |
| 2026-05-05 23:44 | 51.05580 | -0.46422 | 3016 ft | 143 kts | 9° |
| 2026-05-05 23:44 | 51.06556 | -0.46240 | 2988 ft | 137 kts | 9° |
| 2026-05-05 23:44 | 51.07481 | -0.46080 | 2993 ft | 132 kts | 9° |
| 2026-05-05 23:45 | 51.08392 | -0.45926 | 2998 ft | 132 kts | 9° |
| 2026-05-05 23:45 | 51.09303 | -0.45777 | 2997 ft | 131 kts | 9° |
| 2026-05-05 23:45 | 51.10207 | -0.45573 | 2990 ft | 130 kts | 19° |
| 2026-05-05 23:45 | 51.10879 | -0.44665 | 3005 ft | 130 kts | 54° |
| 2026-05-05 23:46 | 51.11306 | -0.43390 | 2999 ft | 132 kts | 66° |
| 2026-05-05 23:46 | 51.11583 | -0.41996 | 2976 ft | 133 kts | 72° |
| 2026-05-05 23:46 | 51.11805 | -0.40571 | 2821 ft | 132 kts | 74° |
| 2026-05-05 23:46 | 51.12010 | -0.39145 | 2629 ft | 132 kts | 75° |
| 2026-05-05 23:47 | 51.12208 | -0.37725 | 2446 ft | 131 kts | 75° |
| 2026-05-05 23:47 | 51.12407 | -0.36308 | 2257 ft | 131 kts | 75° |
| 2026-05-05 23:47 | 51.12606 | -0.34894 | 2075 ft | 131 kts | 75° |
| 2026-05-05 23:47 | 51.12803 | -0.33480 | 1894 ft | 130 kts | 75° |
| 2026-05-05 23:48 | 51.13000 | -0.32072 | 1728 ft | 130 kts | 75° |
| 2026-05-05 23:48 | 51.13196 | -0.30666 | 1533 ft | 129 kts | 75° |
| 2026-05-05 23:48 | 51.13390 | -0.29270 | 1362 ft | 129 kts | 75° |
| 2026-05-05 23:48 | 51.13584 | -0.27875 | 1176 ft | 129 kts | 75° |
| 2026-05-05 23:49 | 51.13779 | -0.26485 | 999 ft | 129 kts | 75° |
| 2026-05-05 23:49 | 51.13972 | -0.25094 | 820 ft | 128 kts | 75° |
| 2026-05-05 23:49 | 51.14165 | -0.23711 | 648 ft | 128 kts | 75° |
| 2026-05-05 23:49 | 51.14357 | -0.22331 | 473 ft | 127 kts | 75° |
| 2026-05-05 23:50 | 51.14549 | -0.20959 | 308 ft | 127 kts | 75° |
| 2026-05-05 23:50 | 51.14742 | -0.19603 | 219 ft | 121 kts | 75° |
| 2026-05-05 23:50 | 51.14862 | -0.18728 | 213 ft | 37 kts | 76° |
| 2026-05-05 23:50 | 51.14994 | -0.18416 | 208 ft | 33 kts | 57° |
| 2026-05-05 23:51 | 51.15098 | -0.18202 | 218 ft | 13 kts | 50° |
| 2026-05-05 23:51 | 51.15132 | -0.18073 | 213 ft | 13 kts | 77° |
| 2026-05-05 23:51 | 51.15152 | -0.17932 | 208 ft | 13 kts | 77° |
| 2026-05-05 23:51 | 51.15182 | -0.17800 | 213 ft | 11 kts | 39° |
| 2026-05-05 23:52 | 51.15251 | -0.17766 | 212 ft | 11 kts | 38° |
| 2026-05-05 23:52 | 51.15277 | -0.17638 | 210 ft | 14 kts | 78° |
| 2026-05-05 23:52 | 51.15296 | -0.17474 | 208 ft | 16 kts | 82° |
| 2026-05-05 23:52 | 51.15368 | -0.17380 | 216 ft | 16 kts | 349° |
| 2026-05-05 23:53 | 51.15486 | -0.17422 | 212 ft | 18 kts | 348° |
| 2026-05-05 23:53 | 51.15616 | -0.17466 | 213 ft | 20 kts | 348° |
| 2026-05-05 23:53 | 51.15724 | -0.17500 | 215 ft | 16 kts | 345° |
| 2026-05-05 23:53 | 51.15748 | -0.17611 | 220 ft | 12 kts | 237° |
| 2026-05-05 23:54 | 51.15674 | -0.17615 | 210 ft | 9 kts | 167° |
| 2026-05-05 23:54 | 51.15657 | -0.17609 | 216 ft | 0 kts | 167° |